sensor_id;sensor_type;location;lat;lon;timestamp;P1;durP1;ratioP1;P2;durP2;ratioP2
77748;SDS011;66938;52.084;5.228;2023-03-01T00:01:09;22.1;;;20.2;;
77748;SDS011;66938;52.084;5.228;2023-03-01T00:02:49;22.8;;;20.9;;
77748;SDS011;66938;52.084;5.228;2023-03-01T00:04:26;23.9;;;21.8;;
77748;SDS011;66938;52.084;5.228;2023-03-01T00:06:03;23.0;;;21.1;;
77748;SDS011;66938;52.084;5.228;2023-03-01T00:09:16;23.2;;;21.2;;
77748;SDS011;66938;52.084;5.228;2023-03-01T00:11:01;23.6;;;21.7;;
77748;SDS011;66938;52.084;5.228;2023-03-01T00:12:39;23.8;;;21.7;;
77748;SDS011;66938;52.084;5.228;2023-03-01T00:15:51;23.7;;;21.7;;
77748;SDS011;66938;52.084;5.228;2023-03-01T00:17:28;22.4;;;20.5;;
77748;SDS011;66938;52.084;5.228;2023-03-01T00:19:04;22.4;;;20.5;;
77748;SDS011;66938;52.084;5.228;2023-03-01T00:20:41;22.6;;;20.7;;
77748;SDS011;66938;52.084;5.228;2023-03-01T00:23:53;23.1;;;21.1;;
77748;SDS011;66938;52.084;5.228;2023-03-01T00:25:30;23.3;;;21.3;;
77748;SDS011;66938;52.084;5.228;2023-03-01T00:27:07;22.6;;;20.7;;
77748;SDS011;66938;52.084;5.228;2023-03-01T00:30:20;23.3;;;21.3;;
77748;SDS011;66938;52.084;5.228;2023-03-01T00:31:56;22.0;;;20.11;;
77748;SDS011;66938;52.084;5.228;2023-03-01T00:33:32;22.4;;;20.41;;
77748;SDS011;66938;52.084;5.228;2023-03-01T00:36:45;22.8;;;20.9;;
77748;SDS011;66938;52.084;5.228;2023-03-01T00:38:22;22.4;;;20.5;;
77748;SDS011;66938;52.084;5.228;2023-03-01T00:39:58;23.1;;;21.2;;
77748;SDS011;66938;52.084;5.228;2023-03-01T00:43:10;22.6;;;20.7;;
77748;SDS011;66938;52.084;5.228;2023-03-01T00:44:46;22.8;;;20.9;;
77748;SDS011;66938;52.084;5.228;2023-03-01T00:46:23;26.2;;;23.7;;
77748;SDS011;66938;52.084;5.228;2023-03-01T00:48:02;22.8;;;20.8;;
77748;SDS011;66938;52.084;5.228;2023-03-01T00:51:15;23.2;;;21.3;;
77748;SDS011;66938;52.084;5.228;2023-03-01T00:52:53;22.6;;;20.7;;
77748;SDS011;66938;52.084;5.228;2023-03-01T00:54:30;23.5;;;21.6;;
77748;SDS011;66938;52.084;5.228;2023-03-01T00:57:45;21.3;;;19.7;;
77748;SDS011;66938;52.084;5.228;2023-03-01T00:59:21;25.3;;;23.1;;
77748;SDS011;66938;52.084;5.228;2023-03-01T01:00:58;24.3;;;22.3;;
77748;SDS011;66938;52.084;5.228;2023-03-01T01:02:34;25.0;;;22.9;;
77748;SDS011;66938;52.084;5.228;2023-03-01T01:05:49;24.3;;;22.2;;
77748;SDS011;66938;52.084;5.228;2023-03-01T01:07:25;26.2;;;24.0;;
77748;SDS011;66938;52.084;5.228;2023-03-01T01:09:02;26.0;;;23.7;;
77748;SDS011;66938;52.084;5.228;2023-03-01T01:12:20;24.8;;;22.8;;
77748;SDS011;66938;52.084;5.228;2023-03-01T01:13:56;24.4;;;22.4;;
77748;SDS011;66938;52.084;5.228;2023-03-01T01:15:33;23.5;;;21.6;;
77748;SDS011;66938;52.084;5.228;2023-03-01T01:17:10;24.2;;;22.2;;
77748;SDS011;66938;52.084;5.228;2023-03-01T01:20:22;24.9;;;22.8;;
77748;SDS011;66938;52.084;5.228;2023-03-01T01:21:58;24.8;;;22.8;;
77748;SDS011;66938;52.084;5.228;2023-03-01T01:23:35;25.8;;;23.7;;
77748;SDS011;66938;52.084;5.228;2023-03-01T01:26:48;25.8;;;23.6;;
77748;SDS011;66938;52.084;5.228;2023-03-01T01:28:25;25.4;;;23.4;;
77748;SDS011;66938;52.084;5.228;2023-03-01T01:30:01;26.0;;;23.9;;
77748;SDS011;66938;52.084;5.228;2023-03-01T01:33:17;25.2;;;23.2;;
77748;SDS011;66938;52.084;5.228;2023-03-01T01:34:53;26.4;;;24.2;;
77748;SDS011;66938;52.084;5.228;2023-03-01T01:36:31;27.2;;;24.9;;
77748;SDS011;66938;52.084;5.228;2023-03-01T01:38:09;27.2;;;24.8;;
77748;SDS011;66938;52.084;5.228;2023-03-01T01:41:22;27.6;;;25.4;;
77748;SDS011;66938;52.084;5.228;2023-03-01T01:42:59;26.8;;;24.6;;
77748;SDS011;66938;52.084;5.228;2023-03-01T01:44:35;28.2;;;25.8;;
77748;SDS011;66938;52.084;5.228;2023-03-01T01:47:58;29.7;;;27.3;;
77748;SDS011;66938;52.084;5.228;2023-03-01T01:49:40;27.1;;;24.9;;
77748;SDS011;66938;52.084;5.228;2023-03-01T01:51:21;29.7;;;27.2;;
77748;SDS011;66938;52.084;5.228;2023-03-01T01:53:01;31.1;;;28.6;;
77748;SDS011;66938;52.084;5.228;2023-03-01T01:56:21;31.0;;;28.5;;
77748;SDS011;66938;52.084;5.228;2023-03-01T01:58:02;30.4;;;27.9;;
77748;SDS011;66938;52.084;5.228;2023-03-01T01:59:43;31.5;;;29.0;;
77748;SDS011;66938;52.084;5.228;2023-03-01T02:01:25;28.1;;;25.7;;
77748;SDS011;66938;52.084;5.228;2023-03-01T02:04:44;31.6;;;29.0;;
77748;SDS011;66938;52.084;5.228;2023-03-01T02:06:25;30.7;;;28.1;;
77748;SDS011;66938;52.084;5.228;2023-03-01T02:08:05;30.1;;;27.6;;
77748;SDS011;66938;52.084;5.228;2023-03-01T02:09:45;31.1;;;28.6;;
77748;SDS011;66938;52.084;5.228;2023-03-01T02:13:03;28.4;;;26.0;;
77748;SDS011;66938;52.084;5.228;2023-03-01T02:14:40;31.9;;;29.3;;
77748;SDS011;66938;52.084;5.228;2023-03-01T02:16:16;31.6;;;29.0;;
77748;SDS011;66938;52.084;5.228;2023-03-01T02:17:53;33.0;;;30.4;;
77748;SDS011;66938;52.084;5.228;2023-03-01T02:21:38;31.6;;;28.9;;
77748;SDS011;66938;52.084;5.228;2023-03-01T02:23:25;31.5;;;28.8;;
77748;SDS011;66938;52.084;5.228;2023-03-01T02:25:04;31.3;;;28.7;;
77748;SDS011;66938;52.084;5.228;2023-03-01T02:26:51;30.2;;;27.7;;
77748;SDS011;66938;52.084;5.228;2023-03-01T02:28:31;31.7;;;29.0;;
77748;SDS011;66938;52.084;5.228;2023-03-01T02:31:46;30.9;;;28.2;;
77748;SDS011;66938;52.084;5.228;2023-03-01T02:33:24;31.7;;;28.9;;
77748;SDS011;66938;52.084;5.228;2023-03-01T02:35:02;30.9;;;28.2;;
77748;SDS011;66938;52.084;5.228;2023-03-01T02:38:18;30.6;;;28.1;;
77748;SDS011;66938;52.084;5.228;2023-03-01T02:39:56;30.1;;;27.6;;
77748;SDS011;66938;52.084;5.228;2023-03-01T02:41:37;30.3;;;27.6;;
77748;SDS011;66938;52.084;5.228;2023-03-01T02:43:17;33.6;;;30.8;;
77748;SDS011;66938;52.084;5.228;2023-03-01T02:46:34;32.9;;;30.3;;
77748;SDS011;66938;52.084;5.228;2023-03-01T02:48:18;31.6;;;28.8;;
77748;SDS011;66938;52.084;5.228;2023-03-01T02:49:55;30.8;;;28.3;;
77748;SDS011;66938;52.084;5.228;2023-03-01T02:51:35;29.7;;;27.2;;
77748;SDS011;66938;52.084;5.228;2023-03-01T02:53:25;32.8;;;30.2;;
77748;SDS011;66938;52.084;5.228;2023-03-01T02:56:50;32.1;;;29.4;;
77748;SDS011;66938;52.084;5.228;2023-03-01T02:58:27;30.9;;;28.2;;
77748;SDS011;66938;52.084;5.228;2023-03-01T03:00:05;30.7;;;28.2;;
77748;SDS011;66938;52.084;5.228;2023-03-01T03:03:20;31.6;;;29.0;;
77748;SDS011;66938;52.084;5.228;2023-03-01T03:04:57;33.1;;;30.2;;
77748;SDS011;66938;52.084;5.228;2023-03-01T03:06:33;31.4;;;28.8;;
77748;SDS011;66938;52.084;5.228;2023-03-01T03:08:10;33.6;;;30.8;;
77748;SDS011;66938;52.084;5.228;2023-03-01T03:11:22;30.0;;;27.6;;
77748;SDS011;66938;52.084;5.228;2023-03-01T03:12:59;31.9;;;29.2;;
77748;SDS011;66938;52.084;5.228;2023-03-01T03:14:37;31.8;;;29.1;;
77748;SDS011;66938;52.084;5.228;2023-03-01T03:17:50;31.0;;;28.5;;
77748;SDS011;66938;52.084;5.228;2023-03-01T03:19:28;30.6;;;28.1;;
77748;SDS011;66938;52.084;5.228;2023-03-01T03:21:06;30.8;;;28.4;;
77748;SDS011;66938;52.084;5.228;2023-03-01T03:22:43;32.4;;;29.8;;
77748;SDS011;66938;52.084;5.228;2023-03-01T03:25:55;32.21;;;29.5;;
77748;SDS011;66938;52.084;5.228;2023-03-01T03:27:31;32.21;;;29.6;;
77748;SDS011;66938;52.084;5.228;2023-03-01T03:29:08;31.0;;;28.4;;
77748;SDS011;66938;52.084;5.228;2023-03-01T03:32:20;31.7;;;29.0;;
77748;SDS011;66938;52.084;5.228;2023-03-01T03:33:56;31.5;;;28.9;;
77748;SDS011;66938;52.084;5.228;2023-03-01T03:38:52;30.8;;;28.3;;
77748;SDS011;66938;52.084;5.228;2023-03-01T03:40:28;31.7;;;29.1;;
77748;SDS011;66938;52.084;5.228;2023-03-01T03:42:08;30.7;;;28.2;;
77748;SDS011;66938;52.084;5.228;2023-03-01T03:43:44;33.4;;;30.6;;
77748;SDS011;66938;52.084;5.228;2023-03-01T03:46:56;31.3;;;28.8;;
77748;SDS011;66938;52.084;5.228;2023-03-01T03:48:32;31.6;;;28.9;;
77748;SDS011;66938;52.084;5.228;2023-03-01T03:50:10;32.3;;;29.7;;
77748;SDS011;66938;52.084;5.228;2023-03-01T03:53:25;32.21;;;29.7;;
77748;SDS011;66938;52.084;5.228;2023-03-01T03:55:03;32.8;;;30.1;;
77748;SDS011;66938;52.084;5.228;2023-03-01T03:56:40;32.6;;;30.0;;
77748;SDS011;66938;52.084;5.228;2023-03-01T03:58:17;33.71;;;31.0;;
77748;SDS011;66938;52.084;5.228;2023-03-01T04:01:30;33.5;;;30.7;;
77748;SDS011;66938;52.084;5.228;2023-03-01T04:03:07;32.3;;;29.7;;
77748;SDS011;66938;52.084;5.228;2023-03-01T04:04:45;32.9;;;30.2;;
77748;SDS011;66938;52.084;5.228;2023-03-01T04:07:58;33.0;;;30.4;;
77748;SDS011;66938;52.084;5.228;2023-03-01T04:09:35;34.71;;;31.7;;
77748;SDS011;66938;52.084;5.228;2023-03-01T04:11:11;34.0;;;31.3;;
77748;SDS011;66938;52.084;5.228;2023-03-01T04:14:24;33.21;;;30.5;;
77748;SDS011;66938;52.084;5.228;2023-03-01T04:16:01;33.9;;;31.1;;
77748;SDS011;66938;52.084;5.228;2023-03-01T04:17:37;34.6;;;31.9;;
77748;SDS011;66938;52.084;5.228;2023-03-01T04:19:13;33.6;;;30.9;;
77748;SDS011;66938;52.084;5.228;2023-03-01T04:22:26;33.9;;;31.2;;
77748;SDS011;66938;52.084;5.228;2023-03-01T04:24:03;33.9;;;31.2;;
77748;SDS011;66938;52.084;5.228;2023-03-01T04:25:40;31.8;;;29.2;;
77748;SDS011;66938;52.084;5.228;2023-03-01T04:28:54;34.1;;;31.2;;
77748;SDS011;66938;52.084;5.228;2023-03-01T04:30:30;35.31;;;32.4;;
77748;SDS011;66938;52.084;5.228;2023-03-01T04:32:06;35.0;;;32.1;;
77748;SDS011;66938;52.084;5.228;2023-03-01T04:35:20;36.1;;;33.1;;
77748;SDS011;66938;52.084;5.228;2023-03-01T04:36:56;33.9;;;31.1;;
77748;SDS011;66938;52.084;5.228;2023-03-01T04:38:32;34.21;;;31.4;;
77748;SDS011;66938;52.084;5.228;2023-03-01T04:40:09;33.4;;;30.6;;
77748;SDS011;66938;52.084;5.228;2023-03-01T04:43:23;36.0;;;33.0;;
77748;SDS011;66938;52.084;5.228;2023-03-01T04:44:59;33.71;;;30.8;;
77748;SDS011;66938;52.084;5.228;2023-03-01T04:46:35;33.1;;;30.4;;
77748;SDS011;66938;52.084;5.228;2023-03-01T04:49:49;37.1;;;34.0;;
77748;SDS011;66938;52.084;5.228;2023-03-01T04:51:25;34.4;;;31.7;;
77748;SDS011;66938;52.084;5.228;2023-03-01T04:53:01;34.5;;;31.7;;
77748;SDS011;66938;52.084;5.228;2023-03-01T04:56:14;35.81;;;32.9;;
77748;SDS011;66938;52.084;5.228;2023-03-01T04:57:51;34.81;;;32.0;;
77748;SDS011;66938;52.084;5.228;2023-03-01T04:59:29;33.5;;;30.7;;
77748;SDS011;66938;52.084;5.228;2023-03-01T05:01:08;33.21;;;30.4;;
77748;SDS011;66938;52.084;5.228;2023-03-01T05:04:24;33.5;;;30.8;;
77748;SDS011;66938;52.084;5.228;2023-03-01T05:06:00;35.81;;;32.8;;
77748;SDS011;66938;52.084;5.228;2023-03-01T05:07:36;34.4;;;31.6;;
77748;SDS011;66938;52.084;5.228;2023-03-01T05:10:49;32.6;;;30.0;;
77748;SDS011;66938;52.084;5.228;2023-03-01T05:12:28;33.3;;;30.6;;
77748;SDS011;66938;52.084;5.228;2023-03-01T05:14:04;31.0;;;28.5;;
77748;SDS011;66938;52.084;5.228;2023-03-01T05:15:42;32.3;;;29.6;;
77748;SDS011;66938;52.084;5.228;2023-03-01T05:18:54;31.5;;;29.0;;
77748;SDS011;66938;52.084;5.228;2023-03-01T05:20:30;33.4;;;30.7;;
77748;SDS011;66938;52.084;5.228;2023-03-01T05:22:06;37.1;;;34.1;;
77748;SDS011;66938;52.084;5.228;2023-03-01T05:25:20;35.4;;;32.5;;
77748;SDS011;66938;52.084;5.228;2023-03-01T05:26:57;35.21;;;32.3;;
77748;SDS011;66938;52.084;5.228;2023-03-01T05:28:34;34.6;;;31.7;;
77748;SDS011;66938;52.084;5.228;2023-03-01T05:31:48;32.9;;;30.1;;
77748;SDS011;66938;52.084;5.228;2023-03-01T05:33:25;34.5;;;31.7;;
77748;SDS011;66938;52.084;5.228;2023-03-01T05:35:03;34.31;;;31.5;;
77748;SDS011;66938;52.084;5.228;2023-03-01T05:36:40;34.4;;;31.6;;
77748;SDS011;66938;52.084;5.228;2023-03-01T05:39:52;34.21;;;31.4;;
77748;SDS011;66938;52.084;5.228;2023-03-01T05:41:28;35.6;;;32.6;;
77748;SDS011;66938;52.084;5.228;2023-03-01T05:43:04;38.9;;;35.6;;
77748;SDS011;66938;52.084;5.228;2023-03-01T05:46:18;38.9;;;35.71;;
77748;SDS011;66938;52.084;5.228;2023-03-01T05:47:54;38.5;;;35.4;;
77748;SDS011;66938;52.084;5.228;2023-03-01T05:49:31;36.4;;;33.4;;
77748;SDS011;66938;52.084;5.228;2023-03-01T05:52:43;36.81;;;33.8;;
77748;SDS011;66938;52.084;5.228;2023-03-01T05:54:21;38.31;;;35.1;;
77748;SDS011;66938;52.084;5.228;2023-03-01T05:55:59;36.0;;;33.0;;
77748;SDS011;66938;52.084;5.228;2023-03-01T05:57:35;40.21;;;36.81;;
77748;SDS011;66938;52.084;5.228;2023-03-01T06:00:47;40.1;;;36.81;;
77748;SDS011;66938;52.084;5.228;2023-03-01T06:02:24;38.4;;;35.31;;
77748;SDS011;66938;52.084;5.228;2023-03-01T06:04:00;36.4;;;33.4;;
77748;SDS011;66938;52.084;5.228;2023-03-01T06:07:15;36.31;;;33.4;;
77748;SDS011;66938;52.084;5.228;2023-03-01T06:08:51;36.21;;;33.3;;
77748;SDS011;66938;52.084;5.228;2023-03-01T06:10:28;40.0;;;36.71;;
77748;SDS011;66938;52.084;5.228;2023-03-01T06:13:42;38.4;;;35.31;;
77748;SDS011;66938;52.084;5.228;2023-03-01T06:15:20;38.81;;;35.71;;
77748;SDS011;66938;52.084;5.228;2023-03-01T06:16:57;37.81;;;34.71;;
77748;SDS011;66938;52.084;5.228;2023-03-01T06:18:34;36.0;;;33.0;;
77748;SDS011;66938;52.084;5.228;2023-03-01T06:21:50;36.0;;;33.0;;
77748;SDS011;66938;52.084;5.228;2023-03-01T06:23:26;35.9;;;32.8;;
77748;SDS011;66938;52.084;5.228;2023-03-01T06:25:03;37.71;;;34.5;;
77748;SDS011;66938;52.084;5.228;2023-03-01T06:28:16;37.31;;;34.21;;
77748;SDS011;66938;52.084;5.228;2023-03-01T06:29:53;37.9;;;34.81;;
77748;SDS011;66938;52.084;5.228;2023-03-01T06:31:29;37.21;;;34.1;;
77748;SDS011;66938;52.084;5.228;2023-03-01T06:33:05;36.81;;;33.8;;
77748;SDS011;66938;52.084;5.228;2023-03-01T06:36:17;36.9;;;33.8;;
77748;SDS011;66938;52.084;5.228;2023-03-01T06:37:53;37.6;;;34.5;;
77748;SDS011;66938;52.084;5.228;2023-03-01T06:39:30;37.21;;;34.1;;
77748;SDS011;66938;52.084;5.228;2023-03-01T06:42:43;39.9;;;36.6;;
77748;SDS011;66938;52.084;5.228;2023-03-01T06:44:25;37.9;;;34.71;;
77748;SDS011;66938;52.084;5.228;2023-03-01T06:46:03;37.5;;;34.31;;
77748;SDS011;66938;52.084;5.228;2023-03-01T06:49:16;37.4;;;34.4;;
77748;SDS011;66938;52.084;5.228;2023-03-01T06:50:52;38.0;;;34.9;;
77748;SDS011;66938;52.084;5.228;2023-03-01T06:52:29;36.9;;;33.9;;
77748;SDS011;66938;52.084;5.228;2023-03-01T06:54:07;36.71;;;33.6;;
77748;SDS011;66938;52.084;5.228;2023-03-01T06:57:19;38.1;;;34.81;;
77748;SDS011;66938;52.084;5.228;2023-03-01T06:58:55;38.9;;;35.5;;
77748;SDS011;66938;52.084;5.228;2023-03-01T07:00:31;35.9;;;32.9;;
77748;SDS011;66938;52.084;5.228;2023-03-01T07:03:46;39.0;;;35.71;;
77748;SDS011;66938;52.084;5.228;2023-03-01T07:05:23;37.5;;;34.21;;
77748;SDS011;66938;52.084;5.228;2023-03-01T07:06:59;37.6;;;34.4;;
77748;SDS011;66938;52.084;5.228;2023-03-01T07:10:11;40.81;;;37.4;;
77748;SDS011;66938;52.084;5.228;2023-03-01T07:11:49;39.81;;;36.4;;
77748;SDS011;66938;52.084;5.228;2023-03-01T07:13:25;41.3;;;37.9;;
77748;SDS011;66938;52.084;5.228;2023-03-01T07:15:02;39.31;;;35.9;;
77748;SDS011;66938;52.084;5.228;2023-03-01T07:18:16;37.81;;;34.6;;
77748;SDS011;66938;52.084;5.228;2023-03-01T07:19:52;39.5;;;36.31;;
77748;SDS011;66938;52.084;5.228;2023-03-01T07:21:29;37.1;;;34.0;;
77748;SDS011;66938;52.084;5.228;2023-03-01T07:24:43;39.31;;;36.0;;
77748;SDS011;66938;52.084;5.228;2023-03-01T07:26:19;39.4;;;36.0;;
77748;SDS011;66938;52.084;5.228;2023-03-01T07:27:55;40.1;;;36.6;;
77748;SDS011;66938;52.084;5.228;2023-03-01T07:29:31;39.5;;;36.21;;
77748;SDS011;66938;52.084;5.228;2023-03-01T07:32:44;39.4;;;36.0;;
77748;SDS011;66938;52.084;5.228;2023-03-01T07:34:20;38.31;;;35.1;;
77748;SDS011;66938;52.084;5.228;2023-03-01T07:35:56;37.4;;;34.31;;
77748;SDS011;66938;52.084;5.228;2023-03-01T07:39:09;38.21;;;34.9;;
77748;SDS011;66938;52.084;5.228;2023-03-01T07:40:46;38.21;;;35.0;;
77748;SDS011;66938;52.084;5.228;2023-03-01T07:42:23;40.1;;;36.5;;
77748;SDS011;66938;52.084;5.228;2023-03-01T07:45:35;37.81;;;34.6;;
77748;SDS011;66938;52.084;5.228;2023-03-01T07:47:11;37.71;;;34.5;;
77748;SDS011;66938;52.084;5.228;2023-03-01T07:48:47;38.5;;;35.4;;
77748;SDS011;66938;52.084;5.228;2023-03-01T07:51:59;40.1;;;36.71;;
77748;SDS011;66938;52.084;5.228;2023-03-01T07:53:36;38.71;;;35.5;;
77748;SDS011;66938;52.084;5.228;2023-03-01T07:55:13;40.31;;;36.9;;
77748;SDS011;66938;52.084;5.228;2023-03-01T07:56:50;41.1;;;37.4;;
77748;SDS011;66938;52.084;5.228;2023-03-01T08:00:03;40.81;;;37.4;;
77748;SDS011;66938;52.084;5.228;2023-03-01T08:01:40;41.0;;;37.6;;
77748;SDS011;66938;52.084;5.228;2023-03-01T08:03:17;41.9;;;38.1;;
77748;SDS011;66938;52.084;5.228;2023-03-01T08:06:29;40.5;;;36.81;;
77748;SDS011;66938;52.084;5.228;2023-03-01T08:08:05;38.5;;;35.31;;
77748;SDS011;66938;52.084;5.228;2023-03-01T08:09:41;37.1;;;33.9;;
77748;SDS011;66938;52.084;5.228;2023-03-01T08:12:54;36.71;;;33.6;;
77748;SDS011;66938;52.084;5.228;2023-03-01T08:14:30;37.71;;;34.5;;
77748;SDS011;66938;52.084;5.228;2023-03-01T08:16:07;36.1;;;33.1;;
77748;SDS011;66938;52.084;5.228;2023-03-01T08:17:45;35.5;;;32.21;;
77748;SDS011;66938;52.084;5.228;2023-03-01T08:21:02;35.31;;;32.3;;
77748;SDS011;66938;52.084;5.228;2023-03-01T08:22:40;34.1;;;31.2;;
77748;SDS011;66938;52.084;5.228;2023-03-01T08:24:16;33.5;;;30.7;;
77748;SDS011;66938;52.084;5.228;2023-03-01T08:27:28;32.4;;;29.7;;
77748;SDS011;66938;52.084;5.228;2023-03-01T08:29:04;32.0;;;29.3;;
77748;SDS011;66938;52.084;5.228;2023-03-01T08:30:40;32.21;;;29.4;;
77748;SDS011;66938;52.084;5.228;2023-03-01T08:32:17;30.6;;;28.0;;
77748;SDS011;66938;52.084;5.228;2023-03-01T08:35:33;29.8;;;27.3;;
77748;SDS011;66938;52.084;5.228;2023-03-01T08:37:09;28.4;;;26.0;;
77748;SDS011;66938;52.084;5.228;2023-03-01T08:38:45;27.2;;;24.8;;
77748;SDS011;66938;52.084;5.228;2023-03-01T08:41:58;25.9;;;23.6;;
77748;SDS011;66938;52.084;5.228;2023-03-01T08:43:34;25.2;;;23.0;;
77748;SDS011;66938;52.084;5.228;2023-03-01T08:45:10;23.4;;;21.3;;
77748;SDS011;66938;52.084;5.228;2023-03-01T08:48:23;22.3;;;20.5;;
77748;SDS011;66938;52.084;5.228;2023-03-01T08:50:00;20.5;;;18.7;;
77748;SDS011;66938;52.084;5.228;2023-03-01T08:51:38;20.9;;;19.0;;
77748;SDS011;66938;52.084;5.228;2023-03-01T08:53:15;17.8;;;16.3;;
77748;SDS011;66938;52.084;5.228;2023-03-01T08:56:27;20.6;;;18.91;;
77748;SDS011;66938;52.084;5.228;2023-03-01T08:58:03;15.8;;;14.4;;
77748;SDS011;66938;52.084;5.228;2023-03-01T08:59:39;16.0;;;14.5;;
77748;SDS011;66938;52.084;5.228;2023-03-01T09:02:55;19.2;;;17.5;;
77748;SDS011;66938;52.084;5.228;2023-03-01T09:04:31;16.2;;;14.7;;
77748;SDS011;66938;52.084;5.228;2023-03-01T09:06:07;15.6;;;14.2;;
77748;SDS011;66938;52.084;5.228;2023-03-01T09:09:20;16.11;;;14.5;;
77748;SDS011;66938;52.084;5.228;2023-03-01T09:10:56;15.7;;;14.2;;
77748;SDS011;66938;52.084;5.228;2023-03-01T09:12:32;15.4;;;13.9;;
77748;SDS011;66938;52.084;5.228;2023-03-01T09:14:09;13.7;;;12.3;;
77748;SDS011;66938;52.084;5.228;2023-03-01T09:17:21;12.9;;;11.7;;
77748;SDS011;66938;52.084;5.228;2023-03-01T09:18:57;13.6;;;12.2;;
77748;SDS011;66938;52.084;5.228;2023-03-01T09:20:33;11.9;;;10.8;;
77748;SDS011;66938;52.084;5.228;2023-03-01T09:23:46;11.0;;;9.9;;
77748;SDS011;66938;52.084;5.228;2023-03-01T09:25:24;10.7;;;9.71;;
77748;SDS011;66938;52.084;5.228;2023-03-01T09:27:00;10.0;;;9.0;;
77748;SDS011;66938;52.084;5.228;2023-03-01T09:30:13;9.9;;;8.9;;
77748;SDS011;66938;52.084;5.228;2023-03-01T09:31:49;10.4;;;9.4;;
77748;SDS011;66938;52.084;5.228;2023-03-01T09:33:26;9.9;;;8.9;;
77748;SDS011;66938;52.084;5.228;2023-03-01T09:35:03;8.5;;;7.6;;
77748;SDS011;66938;52.084;5.228;2023-03-01T09:38:16;8.2;;;7.4;;
77748;SDS011;66938;52.084;5.228;2023-03-01T09:39:52;7.9;;;7.1;;
77748;SDS011;66938;52.084;5.228;2023-03-01T09:41:33;7.2;;;6.5;;
77748;SDS011;66938;52.084;5.228;2023-03-01T09:43:34;7.2;;;6.4;;
77748;SDS011;66938;52.084;5.228;2023-03-01T09:47:09;7.1;;;6.4;;
77748;SDS011;66938;52.084;5.228;2023-03-01T09:48:55;6.6;;;6.0;;
77748;SDS011;66938;52.084;5.228;2023-03-01T09:50:38;5.8;;;5.2;;
77748;SDS011;66938;52.084;5.228;2023-03-01T09:52:20;6.5;;;5.5;;
77748;SDS011;66938;52.084;5.228;2023-03-01T09:54:05;6.6;;;5.2;;
77748;SDS011;66938;52.084;5.228;2023-03-01T09:57:26;5.9;;;5.2;;
77748;SDS011;66938;52.084;5.228;2023-03-01T09:59:09;6.6;;;5.3;;
77748;SDS011;66938;52.084;5.228;2023-03-01T10:00:59;6.1;;;4.91;;
77748;SDS011;66938;52.084;5.228;2023-03-01T10:02:47;6.2;;;5.2;;
77748;SDS011;66938;52.084;5.228;2023-03-01T10:04:28;6.4;;;5.2;;
77748;SDS011;66938;52.084;5.228;2023-03-01T10:08:01;5.7;;;4.91;;
77748;SDS011;66938;52.084;5.228;2023-03-01T10:10:01;6.3;;;5.3;;
77748;SDS011;66938;52.084;5.228;2023-03-01T10:11:41;6.7;;;5.5;;
77748;SDS011;66938;52.084;5.228;2023-03-01T10:13:22;6.5;;;5.11;;
77748;SDS011;66938;52.084;5.228;2023-03-01T10:15:05;6.1;;;5.0;;
77748;SDS011;66938;52.084;5.228;2023-03-01T10:18:29;6.5;;;5.11;;
77748;SDS011;66938;52.084;5.228;2023-03-01T10:20:18;6.4;;;4.7;;
77748;SDS011;66938;52.084;5.228;2023-03-01T10:22:00;5.2;;;4.7;;
77748;SDS011;66938;52.084;5.228;2023-03-01T10:23:45;5.6;;;4.91;;
77748;SDS011;66938;52.084;5.228;2023-03-01T10:25:31;7.0;;;5.2;;
77748;SDS011;66938;52.084;5.228;2023-03-01T10:27:22;6.3;;;5.3;;
77748;SDS011;66938;52.084;5.228;2023-03-01T10:30:40;5.8;;;5.2;;
77748;SDS011;66938;52.084;5.228;2023-03-01T10:32:17;7.3;;;5.7;;
77748;SDS011;66938;52.084;5.228;2023-03-01T10:33:54;8.1;;;5.8;;
77748;SDS011;66938;52.084;5.228;2023-03-01T10:37:11;7.0;;;5.5;;
77748;SDS011;66938;52.084;5.228;2023-03-01T10:38:49;7.6;;;5.8;;
77748;SDS011;66938;52.084;5.228;2023-03-01T10:40:27;6.7;;;5.2;;
77748;SDS011;66938;52.084;5.228;2023-03-01T10:42:04;6.0;;;5.4;;
77748;SDS011;66938;52.084;5.228;2023-03-01T10:45:34;7.2;;;5.0;;
77748;SDS011;66938;52.084;5.228;2023-03-01T10:47:14;6.9;;;4.91;;
77748;SDS011;66938;52.084;5.228;2023-03-01T10:49:05;6.7;;;5.2;;
77748;SDS011;66938;52.084;5.228;2023-03-01T10:51:05;6.4;;;4.41;;
77748;SDS011;66938;52.084;5.228;2023-03-01T10:52:42;5.3;;;4.41;;
77748;SDS011;66938;52.084;5.228;2023-03-01T10:54:34;4.91;;;4.1;;
77748;SDS011;66938;52.084;5.228;2023-03-01T10:57:48;4.8;;;4.3;;
77748;SDS011;66938;52.084;5.228;2023-03-01T10:59:27;6.4;;;4.8;;
77748;SDS011;66938;52.084;5.228;2023-03-01T11:01:23;4.5;;;4.1;;
77748;SDS011;66938;52.084;5.228;2023-03-01T11:03:09;5.9;;;4.8;;
77748;SDS011;66938;52.084;5.228;2023-03-01T11:06:58;6.2;;;4.8;;
77748;SDS011;66938;52.084;5.228;2023-03-01T11:08:38;6.8;;;4.91;;
77748;SDS011;66938;52.084;5.228;2023-03-01T11:10:18;5.6;;;4.7;;
77748;SDS011;66938;52.084;5.228;2023-03-01T11:11:57;9.0;;;5.3;;
77748;SDS011;66938;52.084;5.228;2023-03-01T11:15:25;6.8;;;4.5;;
77748;SDS011;66938;52.084;5.228;2023-03-01T11:17:05;6.8;;;4.5;;
77748;SDS011;66938;52.084;5.228;2023-03-01T11:20:33;14.2;;;5.11;;
77748;SDS011;66938;52.084;5.228;2023-03-01T11:23:53;6.1;;;4.7;;
77748;SDS011;66938;52.084;5.228;2023-03-01T11:25:31;5.6;;;5.11;;
77748;SDS011;66938;52.084;5.228;2023-03-01T11:29:00;5.9;;;5.0;;
77748;SDS011;66938;52.084;5.228;2023-03-01T11:30:44;5.8;;;5.0;;
77748;SDS011;66938;52.084;5.228;2023-03-01T11:34:24;7.5;;;5.2;;
77748;SDS011;66938;52.084;5.228;2023-03-01T11:36:26;5.4;;;4.7;;
77748;SDS011;66938;52.084;5.228;2023-03-01T11:38:12;6.3;;;5.0;;
77748;SDS011;66938;52.084;5.228;2023-03-01T11:41:42;6.2;;;4.7;;
77748;SDS011;66938;52.084;5.228;2023-03-01T11:43:26;5.4;;;4.3;;
77748;SDS011;66938;52.084;5.228;2023-03-01T11:46:51;6.2;;;4.2;;
77748;SDS011;66938;52.084;5.228;2023-03-01T11:50:34;5.11;;;4.1;;
77748;SDS011;66938;52.084;5.228;2023-03-01T11:52:18;4.2;;;3.5;;
77748;SDS011;66938;52.084;5.228;2023-03-01T11:54:06;4.61;;;3.7;;
77748;SDS011;66938;52.084;5.228;2023-03-01T11:57:58;4.5;;;3.7;;
77748;SDS011;66938;52.084;5.228;2023-03-01T12:00:06;4.8;;;3.8;;
77748;SDS011;66938;52.084;5.228;2023-03-01T12:02:02;4.8;;;3.8;;
77748;SDS011;66938;52.084;5.228;2023-03-01T12:05:06;4.61;;;3.6;;
77748;SDS011;66938;52.084;5.228;2023-03-01T12:07:56;4.3;;;3.1;;
77748;SDS011;66938;52.084;5.228;2023-03-01T12:09:48;4.1;;;3.2;;
77748;SDS011;66938;52.084;5.228;2023-03-01T12:13:43;5.11;;;3.2;;
77748;SDS011;66938;52.084;5.228;2023-03-01T12:15:50;3.6;;;3.2;;
77748;SDS011;66938;52.084;5.228;2023-03-01T12:17:54;4.5;;;3.0;;
77748;SDS011;66938;52.084;5.228;2023-03-01T12:19:53;4.91;;;3.1;;
77748;SDS011;66938;52.084;5.228;2023-03-01T12:23:49;4.61;;;3.3;;
77748;SDS011;66938;52.084;5.228;2023-03-01T12:26:57;4.3;;;3.3;;
77748;SDS011;66938;52.084;5.228;2023-03-01T12:28:55;9.5;;;3.8;;
77748;SDS011;66938;52.084;5.228;2023-03-01T12:31:05;4.7;;;3.6;;
77748;SDS011;66938;52.084;5.228;2023-03-01T12:33:50;4.7;;;3.5;;
77748;SDS011;66938;52.084;5.228;2023-03-01T12:35:36;4.1;;;3.3;;
77748;SDS011;66938;52.084;5.228;2023-03-01T12:39:24;4.41;;;3.6;;
77748;SDS011;66938;52.084;5.228;2023-03-01T12:41:21;6.3;;;4.0;;
77748;SDS011;66938;52.084;5.228;2023-03-01T12:43:48;4.91;;;3.8;;
77748;SDS011;66938;52.084;5.228;2023-03-01T12:47:35;6.9;;;4.41;;
77748;SDS011;66938;52.084;5.228;2023-03-01T12:49:32;4.61;;;3.9;;
77748;SDS011;66938;52.084;5.228;2023-03-01T12:51:15;4.61;;;4.1;;
77748;SDS011;66938;52.084;5.228;2023-03-01T12:54:34;5.5;;;3.9;;
77748;SDS011;66938;52.084;5.228;2023-03-01T12:57:56;4.41;;;3.6;;
77748;SDS011;66938;52.084;5.228;2023-03-01T12:59:42;4.61;;;3.9;;
77748;SDS011;66938;52.084;5.228;2023-03-01T13:03:19;5.0;;;4.0;;